Bangor, Wisconsin
Current Conditions -  °F | °C
As of 3:53 PM on Tuesday 21 Oct 2014 (Local Time) from KLSE Reporting Station
Clear Clear  
Wind Chill: 58°   Ceiling: Unl
Heat Index: 58°   Visibility: 10mi
Dew Point: 37°   Wind: 7mph
Humidity: 46%   Direction: 130°SE
Pressure: 30.18"   Gusts: NA
Location:  43.89°N, 90.99°W
Report Text: KLSE 212053Z 13006KT 10SM CLR 14/03 A3018 RMK AO2 SLP224 T01440028 56013
Loading
Personal Weather Stations






























Interactive Weather Map
Tropical Storm Tracking
New forecast layout! Learn more

10-Day Weather Forecast

Advertisements
Track Severe Weather on mobile